ADDS METAR Data INFO
IDs: Format: Raw Decoded Include TAF

Data at: 1933 UTC 19 Jul 2018

K96D 191915Z AUTO 12009G22KT 1SM VCTS RA VV007 20/20 A2977 RMK AO2 LTG DSNT E-SW
K96D 191855Z AUTO 22013G31KT 140V300 1/4SM VCTS RA VV002 21/20 A2983 RMK AO2
K96D 191835Z AUTO VRB04KT 10SM CLR 27/21 A2978 RMK AO2
K96D 191815Z AUTO 21005KT 10SM CLR 27/21 A2979 RMK AO2
K96D 191755Z AUTO 22006KT 10SM CLR 27/21 A2979 RMK AO2
K96D 191735Z AUTO 27004KT 10SM CLR 26/21 A2980 RMK AO2
K96D 191715Z AUTO 23004KT 10SM CLR 26/21 A2980 RMK AO2
K96D 191655Z AUTO 23007KT 10SM CLR 27/20 A2979 RMK AO2
K96D 191635Z AUTO 22006G13KT 10SM CLR 26/20 A2979 RMK AO2
K96D 191615Z AUTO 23005KT 10SM CLR 27/22 A2978 RMK AO2
K96D 191555Z AUTO 25007G12KT 10SM CLR 26/21 A2979 RMK AO2
K96D 191535Z AUTO 23006G12KT 10SM CLR 26/22 A2979 RMK AO2
K96D 191515Z AUTO 23007KT 10SM CLR 25/25 A2979 RMK AO2
K96D 191455Z AUTO 23007KT 10SM CLR 25/25 A2979 RMK AO2
K96D 191435Z AUTO 24005G10KT 10SM CLR 24/24 A2980 RMK AO2
K96D 191415Z AUTO VRB05KT 10SM CLR 24/24 A2979 RMK AO2 LTG DSNT NW
K96D 191355Z AUTO 20004KT 10SM CLR 23/23 A2979 RMK AO2
K96D 191335Z AUTO VRB03KT 10SM CLR 23/23 A2979 RMK AO2
K96D 191315Z AUTO 00000KT 10SM CLR 22/22 A2979 RMK AO2
K96D 191255Z AUTO 00000KT 10SM CLR 22/22 A2979 RMK AO2
K96D 191235Z AUTO 00000KT 10SM CLR 21/22 A2980 RMK AO2
K96D 191215Z AUTO 00000KT 10SM CLR 21/21 A2980 RMK AO2
K96D 191155Z AUTO 00000KT 10SM CLR 21/21 A2980 RMK AO2
K96D 191135Z AUTO 14003KT 10SM CLR 20/21 A2979 RMK AO2
K96D 191115Z AUTO 00000KT 10SM CLR 20/21 A2979 RMK AO2
K96D 191055Z AUTO 23003KT 10SM CLR 21/21 A2979 RMK AO2
K96D 191035Z AUTO 22004KT 10SM CLR 21/21 A2979 RMK AO2
K96D 191015Z AUTO 23005KT 10SM CLR 21/21 A2979 RMK AO2
K96D 190955Z AUTO 20006KT 10SM CLR 21/21 A2979 RMK AO2
K96D 190935Z AUTO 20006KT 10SM CLR 21/21 A2980 RMK AO2
K96D 190915Z AUTO 20006KT 10SM CLR 22/22 A2981 RMK AO2
K96D 190855Z AUTO 21006KT 10SM CLR 22/21 A2981 RMK AO2
K96D 190835Z AUTO 21005KT 10SM CLR 22/20 A2981 RMK AO2
K96D 190815Z AUTO 21006KT 10SM CLR 22/20 A2981 RMK AO2
K96D 190755Z AUTO 21007KT 10SM CLR 22/19 A2982 RMK AO2
K96D 190735Z AUTO 19006KT 10SM CLR 21/18 A2982 RMK AO2
K96D 190715Z AUTO 19006KT 10SM CLR 22/17 A2982 RMK AO2
K96D 190655Z AUTO 18005KT 10SM CLR 21/18 A2982 RMK AO2
K96D 190635Z AUTO 18003KT 10SM CLR 20/19 A2983 RMK AO2
K96D 190615Z AUTO 16006KT 10SM CLR 20/19 A2983 RMK AO2
K96D 190555Z AUTO 00000KT 10SM CLR 20/18 A2984 RMK AO2
K96D 190535Z AUTO 21003KT 10SM CLR 22/17 A2984 RMK AO2
K96D 190515Z AUTO 21004KT 10SM CLR 22/17 A2984 RMK AO2
K96D 190455Z AUTO VRB04KT 10SM CLR 22/17 A2984 RMK AO2
K96D 190435Z AUTO 21006KT 10SM CLR 22/17 A2984 RMK AO2
K96D 190415Z AUTO 20007KT 10SM CLR 23/17 A2984 RMK AO2
K96D 190355Z AUTO 20006KT 10SM CLR 23/16 A2984 RMK AO2
K96D 190335Z AUTO 21006KT 10SM CLR 24/17 A2984 RMK AO2
K96D 190315Z AUTO 20009KT 10SM CLR 24/17 A2984 RMK AO2
K96D 190255Z AUTO 19008KT 10SM CLR 24/18 A2984 RMK AO2
K96D 190235Z AUTO 21005KT 10SM CLR 25/18 A2984 RMK AO2
K96D 190215Z AUTO 20008KT 10SM CLR 26/18 A2983 RMK AO2
K96D 190155Z AUTO 21009KT 10SM CLR 26/17 A2983 RMK AO2
K96D 190135Z AUTO 21009KT 10SM CLR 27/18 A2984 RMK AO2
K96D 190115Z AUTO 21009KT 10SM CLR 28/18 A2984 RMK AO2
K96D 190055Z AUTO 20008KT 10SM CLR 29/18 A2984 RMK AO2
K96D 190035Z AUTO 22005G12KT 10SM CLR 29/17 A2985 RMK AO2
K96D 190015Z AUTO 21007KT 10SM CLR 30/16 A2985 RMK AO2
K96D 182355Z AUTO 15009KT 10SM CLR 30/18 A2986 RMK AO2
K96D 182335Z AUTO 21009G14KT 10SM CLR 31/17 A2986 RMK AO2
K96D 182315Z AUTO 15007KT 9SM CLR 31/19 A2986 RMK AO2
K96D 182255Z AUTO 15009KT 10SM CLR 31/20 A2987 RMK AO2
K96D 182235Z AUTO 22005KT 10SM CLR 31/16 A2987 RMK AO2
K96D 182215Z AUTO 19008KT 10SM CLR 31/18 A2987 RMK AO2
K96D 182155Z AUTO 19010KT 10SM CLR 31/18 A2988 RMK AO2
K96D 182135Z AUTO 13009KT 10SM CLR 29/20 A2988 RMK AO2
K96D 182115Z AUTO 14009KT 10SM CLR 29/21 A2989 RMK AO2
K96D 182055Z AUTO 14008G15KT 10SM CLR 30/20 A2990 RMK AO2
K96D 182035Z AUTO 14010KT 10SM CLR 30/20 A2991 RMK AO2
K96D 182015Z AUTO 16008G14KT 10SM CLR 29/20 A2991 RMK AO2
K96D 181955Z AUTO 15007G14KT 10SM CLR 29/20 A2992 RMK AO2
K96D 181935Z AUTO 15011KT 10SM 28/20 A2993 RMK AO2
K96D 181915Z AUTO 16010KT 10SM CLR 28/19 A2994 RMK AO2
K96D 181855Z AUTO 17009G15KT 140V200 10SM CLR 28/19 A2994 RMK AO2
K96D 181835Z AUTO 15010G16KT 10SM CLR 28/19 A2994 RMK AO2
K96D 181815Z AUTO 15011G16KT 10SM CLR 28/18 A2995 RMK AO2
K96D 181755Z AUTO 15010G16KT 10SM CLR 28/18 A2995 RMK AO2
K96D 181735Z AUTO 17010KT 10SM CLR 27/18 A2996 RMK AO2
K96D 181715Z AUTO 15013KT 10SM CLR 27/18 A2997 RMK AO2
K96D 181655Z AUTO 16012KT 10SM CLR 26/17 A2997 RMK AO2
K96D 181635Z AUTO 15010KT 10SM CLR 26/17 A2998 RMK AO2
K96D 181615Z AUTO 15009KT 10SM CLR 26/17 A2998 RMK AO2
K96D 181555Z AUTO 15007KT 10SM CLR 26/17 A2998 RMK AO2
K96D 181535Z AUTO 16007G14KT 10SM CLR 26/17 A2999 RMK AO2
K96D 181515Z AUTO 15009KT 10SM CLR 25/17 A3000 RMK AO2
K96D 181455Z AUTO VRB06KT 10SM CLR 25/17 A3000 RMK AO2
K96D 181435Z AUTO 17006KT 10SM CLR 24/17 A3001 RMK AO2
K96D 181415Z AUTO 11005KT 10SM CLR 23/17 A3001 RMK AO2
K96D 181355Z AUTO 15005KT 10SM CLR 22/17 A3002 RMK AO2
K96D 181335Z AUTO 15004KT 10SM CLR 21/16 A3002 RMK AO2
K96D 181315Z AUTO 16003KT 10SM CLR 20/16 A3002 RMK AO2
K96D 181255Z AUTO 14004KT 10SM CLR 19/19 A3003 RMK AO2
K96D 181235Z AUTO 14004KT 10SM CLR 19/19 A3003 RMK AO2
K96D 181215Z AUTO 15003KT 10SM CLR 18/18 A3003 RMK AO2
K96D 181155Z AUTO 15004KT 10SM CLR 16/16 A3002 RMK AO2
K96D 181135Z AUTO 15005KT 10SM CLR 16/16 A3002 RMK AO2
K96D 181115Z AUTO 13003KT 10SM CLR 16/16 A3002 RMK AO2
K96D 181055Z AUTO 11003KT 10SM CLR 15/15 A3002 RMK AO2
K96D 181035Z AUTO 19003KT 10SM CLR 17/17 A3003 RMK AO2
K96D 181015Z AUTO 21004KT 10SM CLR 17/17 A3003 RMK AO2
K96D 180955Z AUTO 21004KT 10SM CLR 16/16 A3003 RMK AO2
K96D 180935Z AUTO 00000KT 10SM CLR 16/16 A3003 RMK AO2
K96D 180915Z AUTO 21003KT 10SM CLR 16/16 A3004 RMK AO2
K96D 180855Z AUTO 00000KT 10SM CLR 16/16 A3004 RMK AO2
K96D 180835Z AUTO 00000KT 10SM CLR 15/15 A3004 RMK AO2
K96D 180815Z AUTO 00000KT 10SM CLR 15/15 A3004 RMK AO2
K96D 180755Z AUTO 21004KT 10SM CLR 16/16 A3004 RMK AO2
K96D 180735Z AUTO 19004KT 10SM CLR 15/15 A3004 RMK AO2